OBBIOTBD

Guest
Details From OBBI - Bahrain Intl
To OTBD - Doha Intl
Flight Number -
Tags Routegen Generated
Created
Modified
Stats Distance 73 nm / 135 km
Max Altitude 360 ft / 110 m
Waypoints 12
Social Downloads 2
Likes 0
Share VATSIM

Download

Looking for another format? Having issues loading an existing format? Contact us
Advertisement - Login to hide

Notes

Departing runway 12 OBBI. Arriving runway 15 OTBD.

Route

+26.22_+050.72 +26.21_+050.73 +26.20_+050.74 +26.19_+050.75 +25.88_+051.06 +25.47_+051.45 +25.46_+051.46 +25.45_+051.47 +25.44_+051.48 +25.43_+051.49 +25.41_+051.50 OTBD

ID Type Via Altitude Latitude Longitude Leg Dist Tot Dist Heading (true) Name
O +26.22_+050.72 DME - 100 ft / 30 m 26.22211˚ 50.71801˚ - 0 nm - -
+26.21_+050.73 DME - 100 ft / 30 m 26.21325˚ 50.73076˚ 0 nm 0 nm 128° / 128° -
+26.20_+050.74 DME - 100 ft / 30 m 26.20342˚ 50.74261˚ 0 nm 1 nm 133° / 133° -
+26.19_+050.75 DME - 100 ft / 30 m 26.19271˚ 50.75345˚ 0 nm 2 nm 138° / 138° -
+25.88_+051.06 DME - 250 ft / 76 m 25.87719˚ 51.05738˚ 25 nm 27 nm 139° / 139° -
+25.47_+051.45 DME - 360 ft / 110 m 25.47211˚ 51.44941˚ 32 nm 59 nm 139° / 139° -
+25.46_+051.46 DME - 350 ft / 107 m 25.46221˚ 51.46110˚ 0 nm 60 nm 133° / 133° -
+25.45_+051.47 DME - 350 ft / 107 m 25.45141˚ 51.47178˚ 0 nm 61 nm 138° / 138° -
+25.44_+051.48 DME - 340 ft / 104 m 25.43982˚ 51.48138˚ 0 nm 62 nm 143° / 143° -
+25.43_+051.49 DME - 330 ft / 101 m 25.42752˚ 51.48982˚ 0 nm 63 nm 148° / 148° -
+25.41_+051.50 DME - 330 ft / 101 m 25.41460˚ 51.49705˚ 0 nm 64 nm 153° / 153° -
O OTBD APT - 240 ft / 73 m 25.28022˚ 51.55653˚ 8 nm 72 nm 158° / 158° -

Altitude Profile

Advertisement - Login to hide

OBBI

Details ICAO OBBI (BAH)
Name BAHRAIN INTL
Region Bahrain
Timezone Asia/Bahrain (UTC+3.0)
Stats Elevation 6 ft / 2 m (AMSL)
Location 26.267837° 50.637095°
Runways 2
Magnetic Variation 2.783° E

METAR

OBBI 252100Z VRB02KT 8000 SKC 31/20 Q1005 NOSIG

Decode

TAF

TAF OBBI 251700Z 2518/2700 09008KT CAVOK= TAF OKBK 251645Z 2518/2624 VRB03KT 7000 SKC TEMPO 2518/2521 34010KT 4000 HZ

Decode

Departure Runways

ID Width Length Bearing (true) Bearing (mag) Surface Threshold Offset Overrun Length
12L 197 ft / 60 m 12,893 ft / 3,930 m 122.74° 119.96° Asphalt 1,000 ft / 305 m 0 ft / 0 m
12R 148 ft / 45 m 8,303 ft / 2,531 m 122.76° 119.98° Asphalt 1,000 ft / 305 m 0 ft / 0 m
30L 148 ft / 45 m 8,303 ft / 2,531 m 302.77° 299.99° Asphalt 395 ft / 120 m 0 ft / 0 m
30R 197 ft / 60 m 12,893 ft / 3,930 m 302.75° 299.97° Asphalt 1,000 ft / 305 m 0 ft / 0 m

OTBD

Details ICAO OTBD (DOH)
Name DOHA INTL
Region Qatar
Timezone Asia/Qatar (UTC+3.0)
Stats Elevation 35 ft / 11 m (AMSL)
Location 25.261056° 51.564999°
Runways 1
Magnetic Variation 2.502° E

METAR

OTBD 252100Z 07003KT CAVOK 29/23 Q1005 NOSIG

Decode

TAF

TAF OTBD 251705Z 2518/2624 08007KT 8000 NSC TEMPO 2523/2603 VRB03KT

Decode

Destination Runways

ID Width Length Bearing (true) Bearing (mag) Surface Threshold Offset Overrun Length
16 151 ft / 46 m 15,065 ft / 4,592 m 158.20° 155.70° Asphalt 2,460 ft / 750 m 98 ft / 30 m
34 151 ft / 46 m 15,065 ft / 4,592 m 338.21° 335.71° Asphalt 0 ft / 0 m 460 ft / 140 m

Approach Navaids

Runway Type Ident Frequency Range Bearing (true) Bearing (mag) Slope Elevation
34 Localiser IBD 109.50 MHz 18 nm / 33 km 338.32° 335.82° - 38 ft / 12 m (AMSL)
34 Glidescope IBD 109.50 MHz 10 nm / 19 km 338.21° 335.71° 3.00° 35 ft / 11 m (AMSL)
34 DME IBD 109.50 MHz 18 nm / 33 km - - - 35 ft / 11 m (AMSL)

Popular Alternatives